createdAt,value
2019-04-28T00:01:05.890Z,0
2019-04-28T00:06:06.757Z,0
2019-04-28T00:11:06.716Z,0
2019-04-28T00:16:06.600Z,0
2019-04-28T00:21:06.769Z,0
2019-04-28T00:25:07.126Z,0
2019-04-28T00:30:07.914Z,0
2019-04-28T00:35:06.593Z,0
2019-04-28T00:40:06.643Z,0
2019-04-28T00:45:08.703Z,0
2019-04-28T00:50:06.694Z,0
2019-04-28T00:55:06.334Z,0
2019-04-28T01:00:08.680Z,0
2019-04-28T01:04:09.274Z,0
2019-04-28T01:09:08.781Z,0
2019-04-28T01:14:06.507Z,0
2019-04-28T01:19:06.510Z,0
2019-04-28T01:24:07.640Z,0
2019-04-28T01:29:06.840Z,0
2019-04-28T01:34:06.896Z,0
2019-04-28T01:39:06.682Z,0
2019-04-28T01:43:09.597Z,0
2019-04-28T01:48:06.233Z,0
2019-04-28T01:53:07.456Z,0
2019-04-28T01:58:09.417Z,0
2019-04-28T02:03:06.582Z,0
2019-04-28T02:08:06.759Z,0
2019-04-28T02:13:07.678Z,0
2019-04-28T02:17:07.027Z,0
2019-04-28T02:22:07.267Z,0
2019-04-28T02:27:07.584Z,0
2019-04-28T02:32:06.099Z,0
2019-04-28T02:37:06.552Z,0
2019-04-28T02:42:07.724Z,0
2019-04-28T02:47:07.063Z,0
2019-04-28T02:51:07.610Z,0
2019-04-28T02:57:06.789Z,0
2019-04-28T03:01:15.877Z,0
2019-04-28T03:06:10.223Z,0
2019-04-28T03:11:09.923Z,0
2019-04-28T03:16:07.848Z,1.67
2019-04-28T03:21:06.137Z,2.5
2019-04-28T03:26:06.338Z,5
2019-04-28T03:30:07.076Z,9.17
2019-04-28T03:35:12.294Z,25
2019-04-28T03:40:07.283Z,53.33
2019-04-28T03:45:12.296Z,100
2019-04-28T03:50:06.308Z,161.67
2019-04-28T03:55:06.597Z,196.67
2019-04-28T04:00:12.132Z,275.83
2019-04-28T04:05:07.430Z,355
2019-04-28T04:09:08.274Z,481.67
2019-04-28T04:14:06.565Z,604.17
2019-04-28T04:19:06.747Z,533.33
2019-04-28T04:24:10.543Z,680
2019-04-28T04:29:06.738Z,1050
2019-04-28T04:34:06.386Z,1292.5
2019-04-28T04:39:11.105Z,1732.5
2019-04-28T04:43:07.464Z,2160.83
2019-04-28T04:48:07.703Z,2492.5
2019-04-28T04:53:06.947Z,1965
2019-04-28T04:58:06.126Z,2201.67
2019-04-28T05:03:07.733Z,2499.17
2019-04-28T05:08:07.880Z,2809.17
2019-04-28T05:13:07.749Z,3786.67
2019-04-28T05:18:06.711Z,3894.17
2019-04-28T05:22:06.149Z,2787.5
2019-04-28T05:27:06.326Z,3142.5
2019-04-28T05:32:07.233Z,3035
2019-04-28T05:37:07.452Z,2369.17
2019-04-28T05:42:07.084Z,2044.17
2019-04-28T05:47:06.172Z,1998.33
2019-04-28T05:52:06.416Z,1995.83
2019-04-28T05:56:06.815Z,1927.5
2019-04-28T06:01:07.482Z,3057.5
2019-04-28T06:06:07.660Z,3977.5
2019-04-28T06:11:06.252Z,4355.83
2019-04-28T06:16:06.309Z,4947.5
2019-04-28T06:21:07.557Z,4489.17
2019-04-28T06:26:07.770Z,5679.17
2019-04-28T06:30:08.989Z,8447.5
2019-04-28T06:35:07.559Z,8885
2019-04-28T06:40:06.146Z,9020
2019-04-28T06:45:08.228Z,8190
2019-04-28T06:50:06.932Z,5989.17
2019-04-28T06:55:06.027Z,4597.5
2019-04-28T06:59:06.404Z,4355
2019-04-28T07:04:07.254Z,5499.17
2019-04-28T07:09:06.790Z,4825.83
2019-04-28T07:14:06.258Z,4400.83
2019-04-28T07:19:07.441Z,4168.33
2019-04-28T07:24:07.794Z,3303.33
2019-04-28T07:29:07.025Z,3895.83
2019-04-28T07:33:07.686Z,4558.33
2019-04-28T07:38:06.875Z,6896.67
2019-04-28T07:43:06.389Z,5660
2019-04-28T07:48:08.394Z,7217.5
2019-04-28T07:53:07.772Z,7241.67
2019-04-28T07:58:07.115Z,5518.33
2019-04-28T08:03:06.703Z,6270
2019-04-28T08:07:06.094Z,6067.5
2019-04-28T08:12:07.726Z,6345
2019-04-28T08:17:07.862Z,6773.33
2019-04-28T08:22:12.318Z,9146.67
2019-04-28T08:27:06.724Z,10140
2019-04-28T08:32:06.701Z,11200.83
2019-04-28T08:37:06.871Z,11529.17
2019-04-28T08:42:07.790Z,13335.83
2019-04-28T08:46:06.239Z,12625
2019-04-28T08:51:06.506Z,14264.17
2019-04-28T08:56:07.636Z,13523.33
2019-04-28T09:01:07.049Z,25013.33
2019-04-28T09:06:06.266Z,30995.83
2019-04-28T09:11:05.931Z,18580.83
2019-04-28T09:15:07.707Z,11890
2019-04-28T09:20:07.311Z,14516.67
2019-04-28T09:25:07.606Z,26846.67
2019-04-28T09:30:08.386Z,30591.67
2019-04-28T09:35:05.904Z,26600.83
2019-04-28T09:40:07.575Z,26440
2019-04-28T09:45:08.786Z,38177.5
2019-04-28T09:49:07.362Z,27533.33
2019-04-28T09:54:06.543Z,54612.5
2019-04-28T09:59:06.682Z,27655.83
2019-04-28T10:04:07.473Z,17829.17
2019-04-28T10:09:07.976Z,17484.17
2019-04-28T10:14:06.320Z,19447.5
2019-04-28T10:19:06.852Z,54612.5
2019-04-28T10:24:07.135Z,20774.17
2019-04-28T10:28:07.521Z,15339.17
2019-04-28T10:33:07.559Z,12667.5
2019-04-28T10:38:07.672Z,14630.83
2019-04-28T10:43:06.309Z,10871.67
2019-04-28T10:48:06.303Z,21517.5
2019-04-28T10:53:07.525Z,21525
2019-04-28T10:57:06.912Z,27648.33
2019-04-28T11:02:07.950Z,27288.33
2019-04-28T11:07:06.264Z,13996.67
2019-04-28T11:12:06.630Z,17352.5
2019-04-28T11:17:07.697Z,20465
2019-04-28T11:22:06.927Z,18599.17
2019-04-28T11:27:06.123Z,38588.33
2019-04-28T11:31:06.364Z,24752.5
2019-04-28T11:36:06.567Z,10943.33
2019-04-28T11:41:07.295Z,9826.67
2019-04-28T11:46:07.276Z,12695.83
2019-04-28T11:51:07.528Z,13882.5
2019-04-28T11:56:06.787Z,13080.83
2019-04-28T12:01:07.706Z,10915.83
2019-04-28T12:06:06.971Z,9548.33
2019-04-28T12:10:07.713Z,9482.5
2019-04-28T12:15:08.260Z,12617.5
2019-04-28T12:20:06.489Z,15150
2019-04-28T12:25:06.776Z,15554.17
2019-04-28T12:30:08.037Z,14437.5
2019-04-28T12:35:06.809Z,15303.33
2019-04-28T12:39:07.100Z,19360
2019-04-28T12:44:06.442Z,15388.33
2019-04-28T12:49:06.555Z,13219.17
2019-04-28T12:54:06.807Z,11767.5
2019-04-28T12:59:06.861Z,14094.17
2019-04-28T13:04:06.377Z,37455
2019-04-28T13:09:06.994Z,28016.67
2019-04-28T13:13:06.390Z,24048.33
2019-04-28T13:18:07.290Z,22320
2019-04-28T13:23:07.809Z,23612.5
2019-04-28T13:28:07.072Z,43803.33
2019-04-28T13:33:06.051Z,46858.33
2019-04-28T13:38:06.324Z,45620.83
2019-04-28T13:43:07.336Z,41749.16
2019-04-28T13:48:07.070Z,43448.33
2019-04-28T13:52:07.514Z,44247.5
2019-04-28T13:57:07.682Z,29280
2019-04-28T14:02:06.271Z,47427.5
2019-04-28T14:07:07.473Z,45496.66
2019-04-28T14:12:07.126Z,43812.5
2019-04-28T14:17:06.504Z,51118.33
2019-04-28T14:22:06.794Z,45559.16
2019-04-28T14:26:06.282Z,36880.83
2019-04-28T14:31:06.826Z,33790
2019-04-28T14:36:07.392Z,29407.5
2019-04-28T14:41:07.238Z,28215
2019-04-28T14:46:06.562Z,27364.17
2019-04-28T14:51:06.843Z,28837.5
2019-04-28T14:55:06.345Z,26410
2019-04-28T15:00:09.990Z,26425.83
2019-04-28T15:05:07.223Z,28266.67
2019-04-28T15:10:06.050Z,27360
2019-04-28T15:15:08.282Z,24387.5
2019-04-28T15:20:06.959Z,25217.5
2019-04-28T15:25:07.750Z,26850
2019-04-28T15:29:07.090Z,26715
2019-04-28T15:34:06.701Z,11429.17
2019-04-28T15:39:07.140Z,20995
2019-04-28T15:44:07.068Z,21440
2019-04-28T15:49:07.387Z,21189.17
2019-04-28T15:54:07.646Z,21328.33
2019-04-28T15:59:05.900Z,15807.5
2019-04-28T16:03:06.537Z,10832.5
2019-04-28T16:08:07.573Z,12958.33
2019-04-28T16:13:07.618Z,8675
2019-04-28T16:18:07.888Z,13903.33
2019-04-28T16:23:06.233Z,10955.83
2019-04-28T16:28:06.269Z,10659.17
2019-04-28T16:33:07.236Z,11444.17
2019-04-28T16:38:08.066Z,9918.33
2019-04-28T16:42:12.669Z,9230.83
2019-04-28T16:47:07.235Z,6780
2019-04-28T16:52:06.491Z,5074.17
2019-04-28T16:57:07.660Z,5304.17
2019-04-28T17:02:06.385Z,5259.17
2019-04-28T17:07:07.322Z,4255.83
2019-04-28T17:12:07.407Z,4051.67
2019-04-28T17:16:07.754Z,3599.17
2019-04-28T17:21:06.990Z,2955
2019-04-28T17:26:06.264Z,2669.17
2019-04-28T17:31:06.426Z,2744.17
2019-04-28T17:36:07.478Z,2736.67
2019-04-28T17:41:07.300Z,2487.5
2019-04-28T17:46:07.580Z,2115
2019-04-28T17:50:05.970Z,1799.17
2019-04-28T17:55:06.157Z,1382.5
2019-04-28T18:00:09.682Z,977.5
2019-04-28T18:05:06.355Z,658.33
2019-04-28T18:10:07.579Z,444.17
2019-04-28T18:15:07.968Z,469.17
2019-04-28T18:20:07.167Z,335
2019-04-28T18:24:07.369Z,238.33
2019-04-28T18:29:06.198Z,160.83
2019-04-28T18:34:06.592Z,108.33
2019-04-28T18:39:07.156Z,60.83
2019-04-28T18:44:07.079Z,28.33
2019-04-28T18:49:07.847Z,12.5
2019-04-28T18:53:06.951Z,5.83
2019-04-28T18:58:07.139Z,2.5
2019-04-28T19:03:06.267Z,0.83
2019-04-28T19:08:07.577Z,0
2019-04-28T19:13:06.140Z,0
2019-04-28T19:18:07.059Z,0
2019-04-28T19:23:06.311Z,0
2019-04-28T19:27:06.552Z,0
2019-04-28T19:32:07.441Z,0
2019-04-28T19:37:07.014Z,0
2019-04-28T19:42:07.722Z,0
2019-04-28T19:47:06.994Z,0
2019-04-28T19:52:06.245Z,0
2019-04-28T19:57:06.970Z,0
2019-04-28T20:01:07.049Z,0
2019-04-28T20:06:06.283Z,0
2019-04-28T20:11:07.893Z,0
2019-04-28T20:16:06.139Z,0
2019-04-28T20:21:07.159Z,0
2019-04-28T20:26:07.822Z,0
2019-04-28T20:31:06.662Z,0
2019-04-28T20:35:06.022Z,0
2019-04-28T20:40:07.759Z,0
2019-04-28T20:45:07.176Z,0
2019-04-28T20:50:06.871Z,0
2019-04-28T20:55:07.467Z,0
2019-04-28T21:00:09.470Z,0
2019-04-28T21:05:06.449Z,0
2019-04-28T21:10:06.845Z,0
2019-04-28T21:14:07.394Z,0
2019-04-28T21:19:07.652Z,0
2019-04-28T21:24:06.882Z,0
2019-04-28T21:29:07.076Z,0
2019-04-28T21:34:06.241Z,0
2019-04-28T21:39:08.830Z,0
2019-04-28T21:44:07.100Z,0
2019-04-28T21:48:07.490Z,0
2019-04-28T21:53:06.701Z,0
2019-04-28T21:58:07.919Z,0
2019-04-28T22:03:06.895Z,0
2019-04-28T22:08:07.384Z,0
2019-04-28T22:13:07.253Z,0
2019-04-28T22:18:07.296Z,0
2019-04-28T22:22:06.720Z,0
2019-04-28T22:27:07.720Z,0
2019-04-28T22:32:07.450Z,0
2019-04-28T22:37:07.688Z,0
2019-04-28T22:42:07.281Z,0
2019-04-28T22:47:06.775Z,0
2019-04-28T22:52:07.262Z,0
2019-04-28T22:57:07.422Z,0
2019-04-28T23:01:07.284Z,0
2019-04-28T23:06:10.813Z,0
2019-04-28T23:11:07.134Z,0
2019-04-28T23:16:07.611Z,0
2019-04-28T23:21:07.827Z,0
2019-04-28T23:26:06.954Z,0
2019-04-28T23:31:07.760Z,0
2019-04-28T23:36:07.555Z,0
2019-04-28T23:40:07.207Z,0
2019-04-28T23:45:08.770Z,0
2019-04-28T23:50:06.908Z,0
2019-04-28T23:55:07.058Z,0
